createdAt,value
2019-02-24T00:01:13.752Z,16.80
2019-02-24T00:03:40.494Z,16.70
2019-02-24T00:06:07.343Z,16.70
2019-02-24T00:08:34.480Z,16.70
2019-02-24T00:11:01.182Z,16.70
2019-02-24T00:13:27.974Z,16.70
2019-02-24T00:15:54.818Z,16.80
2019-02-24T00:18:21.662Z,16.80
2019-02-24T00:20:48.558Z,16.60
2019-02-24T00:23:15.340Z,16.50
2019-02-24T00:25:42.079Z,16.40
2019-02-24T00:28:08.889Z,16.70
2019-02-24T00:30:36.215Z,16.60
2019-02-24T00:33:02.911Z,16.50
2019-02-24T00:35:29.647Z,16.60
2019-02-24T00:37:56.872Z,16.40
2019-02-24T00:40:23.942Z,16.40
2019-02-24T00:42:51.214Z,16.40
2019-02-24T00:45:17.927Z,16.20
2019-02-24T00:47:44.674Z,16.00
2019-02-24T00:50:11.544Z,16.00
2019-02-24T00:52:38.255Z,16.20
2019-02-24T00:55:04.985Z,16.20
2019-02-24T00:57:31.727Z,16.00
2019-02-24T00:59:58.474Z,16.00
2019-02-24T01:02:25.319Z,16.00
2019-02-24T01:04:52.160Z,15.80
2019-02-24T01:07:18.953Z,16.30
2019-02-24T01:09:45.693Z,16.30
2019-02-24T01:12:12.369Z,16.50
2019-02-24T01:14:39.077Z,17.00
2019-02-24T01:17:05.951Z,16.20
2019-02-24T01:19:32.687Z,16.30
2019-02-24T01:21:59.832Z,16.30
2019-02-24T01:24:26.572Z,16.70
2019-02-24T01:26:53.311Z,17.00
2019-02-24T01:29:20.051Z,16.90
2019-02-24T01:31:46.805Z,16.70
2019-02-24T01:34:13.646Z,16.90
2019-02-24T01:36:40.495Z,16.80
2019-02-24T01:39:07.209Z,17.00
2019-02-24T01:41:33.972Z,16.70
2019-02-24T01:44:00.903Z,16.70
2019-02-24T01:46:27.646Z,17.00
2019-02-24T01:48:54.395Z,16.70
2019-02-24T01:51:21.113Z,16.40
2019-02-24T01:53:47.863Z,16.30
2019-02-24T01:56:14.802Z,16.00
2019-02-24T01:58:41.551Z,16.20
2019-02-24T02:01:08.401Z,15.90
2019-02-24T02:03:35.171Z,16.00
2019-02-24T02:06:01.971Z,15.90
2019-02-24T02:08:28.658Z,16.00
2019-02-24T02:10:55.352Z,15.90
2019-02-24T02:13:22.229Z,16.00
2019-02-24T02:15:48.894Z,15.70
2019-02-24T02:18:15.668Z,16.00
2019-02-24T02:20:42.438Z,15.80
2019-02-24T02:23:09.147Z,16.00
2019-02-24T02:25:36.008Z,16.10
2019-02-24T02:28:02.731Z,16.00
2019-02-24T02:30:29.579Z,15.90
2019-02-24T02:32:56.405Z,16.00
2019-02-24T02:35:23.133Z,15.90
2019-02-24T02:37:49.885Z,15.90
2019-02-24T02:40:16.635Z,15.80
2019-02-24T02:42:43.492Z,15.90
2019-02-24T02:45:10.307Z,15.90
2019-02-24T02:47:37.181Z,15.90
2019-02-24T02:50:04.199Z,15.90
2019-02-24T02:52:30.906Z,15.80
2019-02-24T02:54:57.667Z,15.70
2019-02-24T02:57:24.410Z,15.70
2019-02-24T02:59:51.144Z,15.70
2019-02-24T03:02:24.314Z,15.90
2019-02-24T03:04:46.277Z,16.00
2019-02-24T03:07:13.118Z,15.90
2019-02-24T03:09:39.960Z,16.00
2019-02-24T03:12:06.692Z,16.50
2019-02-24T03:14:33.436Z,16.40
2019-02-24T03:17:00.274Z,16.00
2019-02-24T03:19:27.003Z,15.70
2019-02-24T03:21:53.745Z,15.80
2019-02-24T03:32:09.385Z,15.90
2019-02-24T03:34:36.223Z,16.00
2019-02-24T03:37:02.964Z,16.00
2019-02-24T03:39:29.698Z,16.20
2019-02-24T03:41:56.448Z,16.40
2019-02-24T03:44:23.180Z,16.10
2019-02-24T03:46:49.924Z,16.20
2019-02-24T03:49:16.665Z,16.00
2019-02-24T03:51:43.507Z,16.30
2019-02-24T03:54:10.228Z,16.70
2019-02-24T03:56:36.993Z,16.90
2019-02-24T03:59:14.453Z,16.80
2019-02-24T04:01:32.294Z,16.70
2019-02-24T04:03:59.036Z,16.60
2019-02-24T04:06:25.887Z,16.50
2019-02-24T04:08:52.730Z,16.60
2019-02-24T04:11:19.571Z,16.50
2019-02-24T04:13:46.511Z,16.40
2019-02-24T04:16:13.359Z,16.40
2019-02-24T04:18:40.300Z,16.20
2019-02-24T04:21:07.003Z,16.10
2019-02-24T04:23:33.774Z,15.80
2019-02-24T04:26:00.490Z,15.90
2019-02-24T04:28:27.252Z,15.80
2019-02-24T04:30:54.087Z,16.10
2019-02-24T04:33:20.835Z,16.00
2019-02-24T04:35:47.567Z,15.80
2019-02-24T04:38:15.988Z,15.80
2019-02-24T04:40:42.902Z,15.60
2019-02-24T04:43:09.732Z,15.30
2019-02-24T04:45:36.584Z,15.60
2019-02-24T04:48:03.426Z,15.70
2019-02-24T04:50:30.310Z,15.40
2019-02-24T04:52:57.107Z,15.40
2019-02-24T04:55:23.948Z,15.40
2019-02-24T04:57:50.794Z,15.50
2019-02-24T05:00:17.527Z,15.70
2019-02-24T05:02:44.374Z,15.90
2019-02-24T05:05:11.207Z,15.30
2019-02-24T05:07:38.038Z,15.30
2019-02-24T05:10:04.715Z,15.30
2019-02-24T05:12:31.712Z,15.70
2019-02-24T05:14:58.575Z,15.50
2019-02-24T05:17:25.319Z,15.60
2019-02-24T05:19:52.255Z,15.40
2019-02-24T05:22:19.101Z,15.40
2019-02-24T05:24:45.949Z,16.00
2019-02-24T05:27:12.674Z,16.20
2019-02-24T05:29:45.831Z,16.30
2019-02-24T05:32:08.300Z,16.30
2019-02-24T05:34:35.005Z,16.30
2019-02-24T05:37:01.780Z,16.30
2019-02-24T05:39:28.528Z,16.50
2019-02-24T05:41:55.369Z,16.60
2019-02-24T05:44:22.722Z,16.50
2019-02-24T05:46:49.475Z,16.40
2019-02-24T05:49:16.305Z,16.40
2019-02-24T05:51:43.153Z,16.40
2019-02-24T05:54:09.885Z,16.40
2019-02-24T05:56:36.730Z,16.60
2019-02-24T05:59:03.457Z,16.40
2019-02-24T06:01:30.214Z,16.40
2019-02-24T06:03:57.058Z,16.40
2019-02-24T06:06:23.803Z,16.80
2019-02-24T06:08:50.623Z,17.10
2019-02-24T06:11:17.473Z,17.10
2019-02-24T06:13:44.313Z,17.10
2019-02-24T06:16:11.350Z,16.90
2019-02-24T06:18:38.201Z,17.00
2019-02-24T06:21:04.983Z,16.80
2019-02-24T06:23:31.777Z,16.80
2019-02-24T06:25:58.551Z,16.90
2019-02-24T06:28:25.220Z,16.70
2019-02-24T06:30:51.886Z,16.60
2019-02-24T06:33:18.726Z,16.50
2019-02-24T06:35:45.375Z,16.50
2019-02-24T06:38:12.215Z,16.60
2019-02-24T06:40:39.070Z,16.80
2019-02-24T06:43:05.788Z,16.80
2019-02-24T06:45:32.493Z,16.80
2019-02-24T06:47:59.333Z,16.70
2019-02-24T06:50:35.105Z,17.00
2019-02-24T06:52:54.909Z,17.00
2019-02-24T06:55:21.642Z,16.70
2019-02-24T06:57:48.380Z,16.70
2019-02-24T07:00:15.218Z,17.00
2019-02-24T07:02:41.968Z,16.90
2019-02-24T07:05:08.712Z,17.00
2019-02-24T07:07:35.442Z,16.80
2019-02-24T07:10:02.284Z,16.80
2019-02-24T07:12:29.127Z,17.00
2019-02-24T07:14:55.827Z,17.10
2019-02-24T07:17:22.612Z,17.40
2019-02-24T07:19:49.450Z,17.60
2019-02-24T07:22:16.649Z,18.10
2019-02-24T07:24:43.467Z,18.00
2019-02-24T07:27:10.283Z,17.60
2019-02-24T07:29:37.119Z,17.30
2019-02-24T07:32:03.953Z,16.80
2019-02-24T07:34:30.820Z,16.70
2019-02-24T07:36:57.536Z,16.60
2019-02-24T07:39:24.241Z,16.40
2019-02-24T07:41:50.907Z,16.30
2019-02-24T07:44:17.554Z,16.20
2019-02-24T07:46:44.389Z,15.70
2019-02-24T07:49:11.126Z,16.10
2019-02-24T07:51:37.874Z,15.90
2019-02-24T07:54:04.612Z,16.20
2019-02-24T07:56:31.562Z,16.00
2019-02-24T07:58:58.407Z,16.70
2019-02-24T08:01:25.149Z,15.90
2019-02-24T08:03:52.196Z,15.80
2019-02-24T08:06:19.030Z,16.00
2019-02-24T08:08:45.869Z,15.50
2019-02-24T08:11:12.955Z,15.80
2019-02-24T08:13:39.665Z,16.20
2019-02-24T08:16:06.506Z,16.30
2019-02-24T08:18:33.336Z,16.20
2019-02-24T08:21:00.201Z,15.80
2019-02-24T08:23:27.229Z,15.80
2019-02-24T08:25:54.069Z,15.30
2019-02-24T08:28:20.934Z,15.60
2019-02-24T08:30:47.758Z,15.40
2019-02-24T08:33:14.493Z,15.50
2019-02-24T08:35:41.634Z,15.40
2019-02-24T08:38:08.426Z,15.40
2019-02-24T08:40:35.220Z,15.10
2019-02-24T08:43:02.063Z,14.80
2019-02-24T08:45:28.909Z,14.90
2019-02-24T08:47:55.849Z,15.10
2019-02-24T08:50:22.648Z,15.10
2019-02-24T08:52:49.445Z,14.80
2019-02-24T08:55:16.260Z,14.60
2019-02-24T08:57:43.000Z,15.00
2019-02-24T09:00:09.870Z,14.90
2019-02-24T09:02:36.552Z,15.00
2019-02-24T09:05:03.229Z,14.60
2019-02-24T09:07:33.592Z,14.80
2019-02-24T09:10:00.470Z,14.70
2019-02-24T09:12:27.448Z,14.40
2019-02-24T09:14:54.145Z,14.60
2019-02-24T09:17:21.359Z,14.40
2019-02-24T09:19:48.065Z,14.30
2019-02-24T09:22:14.806Z,14.10
2019-02-24T09:24:41.820Z,14.50
2019-02-24T09:27:08.586Z,14.20
2019-02-24T09:29:35.953Z,14.10
2019-02-24T09:32:02.915Z,14.20
2019-02-24T09:34:29.800Z,14.50
2019-02-24T09:36:56.591Z,14.20
2019-02-24T09:39:23.418Z,14.20
2019-02-24T09:41:50.147Z,14.10
2019-02-24T09:44:17.001Z,14.00
2019-02-24T09:46:44.035Z,14.00
2019-02-24T09:49:10.878Z,13.90
2019-02-24T09:51:37.613Z,14.00
2019-02-24T09:54:04.351Z,14.00
2019-02-24T09:56:31.214Z,13.90
2019-02-24T09:58:58.058Z,14.40
2019-02-24T10:01:24.878Z,13.60
2019-02-24T10:03:51.720Z,13.70
2019-02-24T10:06:18.467Z,13.80
2019-02-24T10:08:45.288Z,13.70
2019-02-24T10:11:13.256Z,13.90
2019-02-24T10:13:40.210Z,13.70
2019-02-24T10:16:06.956Z,13.90
2019-02-24T10:18:33.702Z,13.50
2019-02-24T10:21:00.549Z,13.20
2019-02-24T10:23:27.384Z,13.30
2019-02-24T10:25:54.082Z,13.50
2019-02-24T10:28:20.751Z,14.10
2019-02-24T10:30:47.609Z,13.50
2019-02-24T10:33:14.451Z,13.30
2019-02-24T10:35:41.286Z,13.10
2019-02-24T10:38:08.174Z,12.90
2019-02-24T10:40:34.835Z,13.00
2019-02-24T10:43:01.603Z,13.00
2019-02-24T10:45:28.461Z,13.10
2019-02-24T10:47:55.301Z,12.90
2019-02-24T10:50:22.133Z,13.10
2019-02-24T10:52:48.993Z,13.40
2019-02-24T10:55:15.815Z,13.80
2019-02-24T10:57:42.661Z,13.70
2019-02-24T11:00:09.604Z,13.30
2019-02-24T11:02:36.443Z,13.40
2019-02-24T11:05:03.193Z,13.20
2019-02-24T11:07:30.020Z,13.30
2019-02-24T11:09:56.751Z,13.50
2019-02-24T11:12:23.535Z,13.60
2019-02-24T11:14:50.444Z,13.60
2019-02-24T11:17:17.283Z,13.80
2019-02-24T11:19:44.129Z,13.10
2019-02-24T11:22:10.883Z,12.80
2019-02-24T11:24:37.606Z,12.50
2019-02-24T11:27:04.456Z,12.80
2019-02-24T11:29:31.393Z,13.20
2019-02-24T11:31:58.240Z,12.80
2019-02-24T11:34:24.988Z,12.70
2019-02-24T11:36:51.820Z,12.80
2019-02-24T11:39:18.655Z,12.60
2019-02-24T11:41:45.536Z,12.70
2019-02-24T11:44:12.332Z,12.80
2019-02-24T11:46:39.077Z,13.00
2019-02-24T11:49:05.929Z,12.80
2019-02-24T11:51:32.760Z,12.80
2019-02-24T11:53:59.677Z,13.10
2019-02-24T11:56:26.454Z,13.30
2019-02-24T11:58:53.287Z,13.00
2019-02-24T12:01:20.022Z,12.90
2019-02-24T12:03:47.259Z,12.90
2019-02-24T12:06:13.909Z,13.40
2019-02-24T12:08:40.653Z,12.70
2019-02-24T12:11:07.389Z,12.90
2019-02-24T12:13:34.138Z,12.70
2019-02-24T12:16:01.377Z,12.60
2019-02-24T12:18:28.225Z,12.90
2019-02-24T12:20:54.971Z,12.40
2019-02-24T12:23:22.118Z,12.70
2019-02-24T12:25:48.946Z,12.40
2019-02-24T12:28:16.186Z,12.10
2019-02-24T12:30:42.956Z,11.70
2019-02-24T12:33:09.677Z,11.80
2019-02-24T12:35:36.392Z,11.40
2019-02-24T12:38:03.167Z,10.70
2019-02-24T12:40:30.013Z,10.70
2019-02-24T12:42:56.901Z,10.80
2019-02-24T12:45:23.699Z,10.10
2019-02-24T12:47:50.533Z,9.70
2019-02-24T12:50:17.478Z,9.80
2019-02-24T12:52:44.626Z,9.50
2019-02-24T12:55:11.498Z,8.70
2019-02-24T12:57:38.298Z,8.90
2019-02-24T13:00:05.053Z,9.40
2019-02-24T13:02:31.880Z,9.70
2019-02-24T13:04:59.295Z,9.20
2019-02-24T13:07:26.503Z,9.00
2019-02-24T13:09:53.339Z,9.00
2019-02-24T13:12:20.079Z,9.00
2019-02-24T13:14:46.921Z,9.10
2019-02-24T13:17:14.155Z,9.50
2019-02-24T13:19:41.022Z,9.60
2019-02-24T13:22:07.905Z,9.40
2019-02-24T13:24:34.708Z,9.40
2019-02-24T13:27:01.527Z,9.60
2019-02-24T13:29:28.677Z,9.80
2019-02-24T13:31:55.528Z,10.10
2019-02-24T13:34:22.270Z,10.00
2019-02-24T13:36:49.105Z,10.00
2019-02-24T13:39:16.039Z,10.00
2019-02-24T13:41:43.450Z,10.40
2019-02-24T13:44:10.254Z,10.40
2019-02-24T13:46:37.099Z,10.30
2019-02-24T13:49:03.929Z,10.20
2019-02-24T13:51:30.766Z,9.90
2019-02-24T13:53:57.600Z,10.30
2019-02-24T13:56:24.325Z,10.40
2019-02-24T13:58:51.083Z,10.10
2019-02-24T14:01:17.939Z,10.00
2019-02-24T14:03:44.656Z,10.30
2019-02-24T14:06:11.417Z,10.90
2019-02-24T14:08:38.246Z,10.90
2019-02-24T14:11:05.003Z,11.20
2019-02-24T14:13:31.871Z,11.30
2019-02-24T14:15:58.680Z,11.80
2019-02-24T14:18:25.517Z,12.20
2019-02-24T14:20:52.347Z,12.80
2019-02-24T14:23:19.303Z,12.80
2019-02-24T14:25:46.248Z,13.00
2019-02-24T14:28:13.086Z,12.50
2019-02-24T14:30:40.317Z,12.70
2019-02-24T14:33:07.591Z,12.60
2019-02-24T14:35:34.322Z,12.70
2019-02-24T14:38:01.247Z,12.50
2019-02-24T14:40:28.243Z,13.00
2019-02-24T14:42:55.116Z,12.80
2019-02-24T14:45:22.390Z,13.10
2019-02-24T14:47:50.173Z,13.30
2019-02-24T14:50:17.034Z,13.60
2019-02-24T14:52:43.741Z,13.50
2019-02-24T14:55:10.636Z,13.80
2019-02-24T14:57:37.394Z,13.60
2019-02-24T15:00:04.097Z,13.80
2019-02-24T15:02:31.145Z,13.70
2019-02-24T15:04:58.736Z,13.30
2019-02-24T15:07:25.908Z,13.50
2019-02-24T15:09:52.761Z,13.40
2019-02-24T15:12:19.667Z,13.70
2019-02-24T15:14:46.501Z,13.90
2019-02-24T15:17:13.659Z,14.10
2019-02-24T15:19:40.850Z,14.20
2019-02-24T15:22:08.072Z,14.90
2019-02-24T15:24:35.155Z,15.10
2019-02-24T15:27:02.465Z,15.50
2019-02-24T15:29:29.176Z,15.60
2019-02-24T15:31:56.625Z,15.70
2019-02-24T15:34:23.481Z,15.60
2019-02-24T15:36:50.476Z,15.50
2019-02-24T15:39:17.214Z,15.30
2019-02-24T15:41:44.468Z,14.80
2019-02-24T15:44:11.322Z,14.80
2019-02-24T15:46:38.159Z,14.50
2019-02-24T15:49:05.359Z,14.50
2019-02-24T15:51:32.274Z,14.60
2019-02-24T15:53:59.370Z,14.90
2019-02-24T15:56:27.081Z,14.50
2019-02-24T15:58:54.307Z,14.70
2019-02-24T16:01:21.460Z,14.90
2019-02-24T16:03:48.510Z,14.70
2019-02-24T16:06:15.398Z,14.90
2019-02-24T16:08:43.228Z,14.70
2019-02-24T16:11:09.915Z,14.70
2019-02-24T16:13:36.690Z,15.10
2019-02-24T16:16:03.438Z,15.40
2019-02-24T16:18:30.164Z,15.20
2019-02-24T16:20:56.913Z,15.40
2019-02-24T16:23:23.753Z,15.40
2019-02-24T16:25:50.494Z,15.50
2019-02-24T16:28:17.353Z,15.30
2019-02-24T16:30:44.064Z,15.60
2019-02-24T16:33:11.006Z,15.70
2019-02-24T16:35:37.911Z,15.40
2019-02-24T16:38:04.602Z,15.40
2019-02-24T16:40:31.445Z,15.20
2019-02-24T16:42:58.177Z,15.20
2019-02-24T16:45:25.028Z,15.20
2019-02-24T16:47:51.763Z,15.40
2019-02-24T16:50:18.489Z,15.20
2019-02-24T16:52:45.239Z,15.50
2019-02-24T16:55:12.086Z,15.40
2019-02-24T16:57:38.912Z,15.60
2019-02-24T17:00:05.881Z,15.50
2019-02-24T17:02:32.705Z,15.60
2019-02-24T17:04:59.547Z,15.60
2019-02-24T17:07:26.247Z,15.50
2019-02-24T17:09:53.233Z,15.30
2019-02-24T17:12:20.035Z,16.10
2019-02-24T17:14:46.933Z,15.50
2019-02-24T17:17:13.748Z,16.00
2019-02-24T17:19:41.046Z,15.60
2019-02-24T17:22:08.055Z,15.70
2019-02-24T17:24:35.918Z,15.80
2019-02-24T17:27:04.156Z,15.70
2019-02-24T17:29:31.502Z,15.80
2019-02-24T17:32:09.850Z,15.80
2019-02-24T17:34:36.713Z,15.90
2019-02-24T17:37:03.543Z,15.90
2019-02-24T17:39:30.386Z,15.50
2019-02-24T17:41:57.254Z,15.50
2019-02-24T17:44:24.073Z,15.80
2019-02-24T17:46:50.915Z,15.80
2019-02-24T17:49:17.619Z,15.80
2019-02-24T17:51:44.548Z,15.80
2019-02-24T17:54:11.255Z,15.80
2019-02-24T17:56:38.076Z,15.90
2019-02-24T17:59:05.006Z,15.60
2019-02-24T18:01:31.759Z,15.50
2019-02-24T18:03:58.701Z,15.40
2019-02-24T18:06:25.438Z,15.30
2019-02-24T18:08:54.296Z,15.30
2019-02-24T18:11:20.915Z,15.60
2019-02-24T18:13:47.707Z,15.70
2019-02-24T18:16:14.545Z,15.50
2019-02-24T18:18:41.612Z,15.30
2019-02-24T18:21:08.450Z,15.30
2019-02-24T18:23:35.169Z,15.30
2019-02-24T18:26:02.020Z,15.40
2019-02-24T18:28:28.860Z,15.70
2019-02-24T18:30:55.594Z,15.80
2019-02-24T18:33:22.997Z,15.70
2019-02-24T18:35:49.752Z,15.60
2019-02-24T18:38:16.431Z,15.30
2019-02-24T18:40:43.706Z,15.50
2019-02-24T18:43:10.590Z,15.40
2019-02-24T18:45:37.598Z,15.60
2019-02-24T18:48:04.309Z,15.30
2019-02-24T18:50:31.168Z,15.50
2019-02-24T18:52:59.117Z,15.30
2019-02-24T18:55:26.252Z,15.40
2019-02-24T18:57:53.002Z,15.50
2019-02-24T19:00:19.852Z,15.20
2019-02-24T19:02:46.685Z,15.30
2019-02-24T19:05:13.999Z,15.30
2019-02-24T19:07:41.122Z,15.30
2019-02-24T19:10:08.021Z,15.40
2019-02-24T19:12:34.779Z,15.40
2019-02-24T19:15:01.500Z,15.30
2019-02-24T19:17:28.356Z,15.50
2019-02-24T19:19:55.192Z,15.30
2019-02-24T19:22:22.295Z,15.20
2019-02-24T19:24:49.072Z,15.20
2019-02-24T19:27:15.822Z,15.20
2019-02-24T19:29:42.668Z,15.20
2019-02-24T19:32:09.391Z,15.30
2019-02-24T19:34:36.141Z,15.20
2019-02-24T19:37:02.895Z,15.10
2019-02-24T19:39:29.607Z,15.00
2019-02-24T19:41:56.458Z,15.10
2019-02-24T19:44:23.194Z,14.80
2019-02-24T19:46:49.941Z,14.90
2019-02-24T19:49:16.782Z,15.00
2019-02-24T19:51:43.730Z,15.10
2019-02-24T19:54:10.515Z,15.00
2019-02-24T19:56:37.299Z,14.80
2019-02-24T19:59:04.148Z,14.50
2019-02-24T20:01:31.025Z,14.60
2019-02-24T20:03:57.846Z,14.70
2019-02-24T20:06:25.016Z,14.70
2019-02-24T20:08:51.894Z,14.90
2019-02-24T20:11:18.610Z,14.70
2019-02-24T20:13:45.405Z,14.80
2019-02-24T20:16:12.181Z,14.80
2019-02-24T20:18:38.933Z,14.90
2019-02-24T20:21:07.810Z,15.10
2019-02-24T20:23:34.209Z,15.10
2019-02-24T20:26:01.078Z,14.80
2019-02-24T20:28:27.789Z,15.40
2019-02-24T20:30:54.652Z,15.30
2019-02-24T20:33:22.550Z,15.30
2019-02-24T20:35:49.704Z,15.70
2019-02-24T20:38:16.417Z,15.70
2019-02-24T20:40:43.127Z,15.40
2019-02-24T20:43:09.970Z,15.20
2019-02-24T20:45:36.672Z,15.00
2019-02-24T20:48:03.457Z,15.10
2019-02-24T20:50:30.311Z,15.10
2019-02-24T20:52:57.184Z,15.00
2019-02-24T20:55:24.021Z,14.70
2019-02-24T20:57:50.819Z,14.40
2019-02-24T21:00:17.951Z,14.60
2019-02-24T21:02:44.794Z,14.70
2019-02-24T21:05:11.833Z,14.50
2019-02-24T21:07:39.252Z,14.40
2019-02-24T21:10:06.777Z,14.80
2019-02-24T21:12:33.713Z,14.70
2019-02-24T21:15:00.753Z,14.80
2019-02-24T21:17:27.579Z,14.80
2019-02-24T21:19:54.420Z,14.70
2019-02-24T21:22:21.173Z,14.50
2019-02-24T21:24:49.023Z,14.40
2019-02-24T21:27:17.308Z,14.50
2019-02-24T21:29:44.048Z,14.40
2019-02-24T21:32:11.264Z,14.10
2019-02-24T21:34:38.555Z,14.80
2019-02-24T21:37:05.560Z,14.20
2019-02-24T21:39:32.552Z,14.10
2019-02-24T21:41:59.382Z,14.10
2019-02-24T21:44:26.224Z,14.10
2019-02-24T21:46:53.065Z,14.00
2019-02-24T21:49:19.798Z,13.90
2019-02-24T21:51:46.538Z,14.00
2019-02-24T21:54:13.286Z,14.10
2019-02-24T21:56:40.282Z,14.20
2019-02-24T21:59:07.111Z,14.00
2019-02-24T22:01:33.808Z,14.10
2019-02-24T22:04:00.549Z,14.10
2019-02-24T22:06:27.402Z,14.10
2019-02-24T22:08:54.207Z,13.90
2019-02-24T22:11:20.984Z,14.10
2019-02-24T22:13:47.806Z,13.80
2019-02-24T22:16:14.658Z,13.90
2019-02-24T22:18:41.383Z,13.60
2019-02-24T22:21:08.221Z,13.80
2019-02-24T22:23:34.886Z,13.50
2019-02-24T22:26:01.601Z,13.50
2019-02-24T22:28:28.617Z,13.60
2019-02-24T22:30:56.604Z,13.60
2019-02-24T22:33:23.490Z,13.60
2019-02-24T22:35:50.317Z,13.30
2019-02-24T22:38:17.154Z,13.40
2019-02-24T22:40:44.104Z,13.40
2019-02-24T22:43:11.145Z,13.40
2019-02-24T22:45:37.972Z,13.30
2019-02-24T22:48:04.827Z,13.60
2019-02-24T22:50:31.668Z,13.90
2019-02-24T22:52:58.811Z,13.80
2019-02-24T22:55:25.669Z,13.80
2019-02-24T22:57:52.732Z,13.60
2019-02-24T23:00:19.738Z,13.80
2019-02-24T23:02:46.494Z,13.60
2019-02-24T23:05:13.339Z,13.60
2019-02-24T23:07:40.068Z,13.50
2019-02-24T23:10:06.899Z,13.60
2019-02-24T23:12:33.540Z,13.40
2019-02-24T23:15:00.277Z,13.40
2019-02-24T23:17:27.127Z,13.40
2019-02-24T23:19:53.825Z,13.40
2019-02-24T23:22:20.599Z,13.20
2019-02-24T23:24:47.333Z,13.10
2019-02-24T23:27:14.140Z,13.10
2019-02-24T23:29:41.670Z,13.10
2019-02-24T23:32:08.480Z,12.90
2019-02-24T23:34:35.333Z,13.10
2019-02-24T23:37:02.173Z,13.20
2019-02-24T23:39:28.896Z,13.20
2019-02-24T23:41:55.638Z,13.00
2019-02-24T23:44:22.376Z,12.90
2019-02-24T23:46:49.217Z,12.90
2019-02-24T23:49:16.228Z,13.10
2019-02-24T23:51:43.014Z,13.00
2019-02-24T23:54:10.050Z,13.30
2019-02-24T23:56:36.796Z,13.00
2019-02-24T23:59:03.638Z,13.10
